Terminal Aerodrome Forecast
Issued by NWS

Home | Current Version | Previous Version | Graphics & Text | Print | Product List | Glossary On
Versions: 1 2 3 4 5 6 7 8 9 10 11 12 13 14 15 16 17
000
FTUS43 KLSX 272300
TAFSUS
TAF
KSUS 272337Z 2800/2824 20012KT P6SM BKN120
     FM280400 21010KT 6SM -SHRA VCTS BKN040CB OVC080
      TEMPO 2805/2807 3SM SHRA OVC030
     FM280800 26010KT P6SM BKN040 OVC080
      TEMPO 2808/2809 5SM -SHRA
     FM281000 30010G18KT P6SM SCT040 BKN080
     FM281600 29010KT P6SM SKC=

USA.gov is the U.S. government's official web portal to all federal, state and local government web resources and services.